Time;durP1;ratioP1;P1;durP2;ratioP2;P2;SDS_P1;SDS_P2;PMS_P1;PMS_P2;Temp;Humidity;BMP_temperature;BMP_pressure;BME280_temperature;BME280_humidity;BME280_pressure;Samples;Min_cycle;Max_cycle;Signal;HPM_P1;HPM_P2
2022/04/18 00:01:46;;;;;;;9.10;5.63;;;0.50;99.90;;;;;;5046144;28;20024;-59
2022/04/18 00:04:12;;;;;;;8.55;4.78;;;0.50;99.90;;;;;;5031789;28;20047;-60
2022/04/18 00:06:37;;;;;;;9.40;4.13;;;0.50;99.90;;;;;;5049200;28;20445;-60
2022/04/18 00:09:04;;;;;;;8.57;4.50;;;0.50;99.90;;;;;;5030579;28;20036;-60
2022/04/18 00:11:29;;;;;;;9.60;4.93;;;0.50;99.90;;;;;;5049648;28;20028;-59
2022/04/18 00:13:55;;;;;;;9.07;5.47;;;0.40;99.90;;;;;;5029154;28;20033;-59
2022/04/18 00:16:20;;;;;;;10.88;5.70;;;0.40;99.90;;;;;;5049217;28;20017;-60
2022/04/18 00:18:46;;;;;;;9.27;4.90;;;0.40;99.90;;;;;;5027890;28;20480;-59
2022/04/18 00:21:11;;;;;;;13.55;6.47;;;0.30;99.90;;;;;;5049419;28;20013;-60
2022/04/18 00:23:37;;;;;;;9.57;5.05;;;0.30;99.90;;;;;;5029396;28;20125;-59
2022/04/18 00:26:03;;;;;;;7.82;4.53;;;0.30;99.90;;;;;;5027956;28;20026;-60
2022/04/18 00:28:28;;;;;;;12.98;5.28;;;0.30;99.90;;;;;;5048428;28;20047;-59
2022/04/18 00:30:54;;;;;;;12.27;4.90;;;0.20;99.90;;;;;;5027666;28;20352;-60
2022/04/18 00:33:20;;;;;;;11.00;6.15;;;0.20;99.90;;;;;;5047924;28;20059;-60
2022/04/18 00:35:45;;;;;;;9.20;4.75;;;0.10;99.90;;;;;;5028110;28;20376;-60
2022/04/18 00:38:10;;;;;;;7.80;4.65;;;0.10;99.90;;;;;;5048335;28;20029;-60
2022/04/18 00:40:36;;;;;;;7.97;3.83;;;0.00;99.90;;;;;;5027394;28;20025;-60
2022/04/18 00:43:06;;;;;;;7.72;3.97;;;0.00;99.90;;;;;;5048085;28;20029;-61
2022/04/18 00:45:31;;;;;;;6.18;3.55;;;-0.10;99.90;;;;;;5027023;28;20021;-60
2022/04/18 00:47:57;;;;;;;6.60;3.50;;;-0.10;99.90;;;;;;5047717;28;20095;-60
2022/04/18 00:50:24;;;;;;;7.50;4.07;;;-0.10;99.90;;;;;;5027467;28;20411;-54
2022/04/18 00:52:51;;;;;;;7.32;4.45;;;-0.10;99.90;;;;;;5048011;28;20032;-56
2022/04/18 00:55:18;;;;;;;8.00;4.72;;;-0.10;99.90;;;;;;5026878;28;20091;-55
2022/04/18 00:57:44;;;;;;;7.10;3.90;;;-0.20;99.90;;;;;;5047968;28;20041;-53
2022/04/18 01:00:10;;;;;;;5.75;3.75;;;-0.20;99.90;;;;;;5028027;28;20468;-53
2022/04/18 01:02:35;;;;;;;8.52;4.28;;;-0.30;99.90;;;;;;5028666;28;20349;-55
2022/04/18 01:05:00;;;;;;;9.13;4.38;;;-0.30;99.90;;;;;;5045855;28;20052;-53
2022/04/18 01:07:26;;;;;;;8.40;4.18;;;-0.30;99.90;;;;;;5028282;28;20108;-54
2022/04/18 01:09:51;;;;;;;5.05;3.10;;;-0.40;99.90;;;;;;5045620;28;20033;-54
2022/04/18 01:12:17;;;;;;;9.70;4.32;;;-0.40;99.90;;;;;;5028793;28;20079;-52
2022/04/18 01:14:49;;;;;;;7.30;3.80;;;-0.40;99.90;;;;;;5045472;28;20017;-53
2022/04/18 01:17:15;;;;;;;8.18;3.80;;;-0.40;99.90;;;;;;5028460;28;20182;-55
2022/04/18 01:19:41;;;;;;;6.13;3.30;;;-0.50;99.90;;;;;;5045546;28;20423;-55
2022/04/18 01:22:09;;;;;;;8.35;4.25;;;-0.50;99.90;;;;;;5028991;28;20041;-53
2022/04/18 01:30:05;;;;;;;8.48;3.35;;;-0.40;99.90;;;;;;5037488;28;20120;-56
2022/04/18 01:32:30;;;;;;;5.93;3.83;;;-0.40;99.90;;;;;;5028629;28;20032;-56
2022/04/18 01:34:57;;;;;;;8.60;4.22;;;-0.40;99.90;;;;;;5045350;28;20029;-56
2022/04/18 01:37:23;;;;;;;10.50;4.82;;;-0.50;99.90;;;;;;5028536;28;20112;-57
2022/04/18 01:39:48;;;;;;;7.15;3.80;;;-0.50;99.90;;;;;;5045569;28;20028;-56
2022/04/18 01:42:14;;;;;;;10.20;4.93;;;-0.60;99.90;;;;;;5028922;28;20334;-56
2022/04/18 01:44:39;;;;;;;6.85;3.95;;;-0.60;99.90;;;;;;5045244;28;20052;-56
2022/04/18 01:47:05;;;;;;;9.18;4.05;;;-0.70;99.90;;;;;;5048348;28;20017;-54
2022/04/18 01:49:31;;;;;;;7.43;3.92;;;-0.70;99.90;;;;;;5032769;28;20124;-56
2022/04/18 01:51:56;;;;;;;9.45;4.65;;;-0.80;99.90;;;;;;5047969;28;20087;-55
2022/04/18 01:54:22;;;;;;;8.75;4.32;;;-0.70;99.90;;;;;;5031560;28;20021;-55
2022/04/18 01:56:48;;;;;;;7.90;4.43;;;-0.80;99.90;;;;;;5047896;28;20024;-53
2022/04/18 01:59:14;;;;;;;6.00;3.50;;;-0.80;99.90;;;;;;5030416;28;20017;-56
2022/04/18 02:01:40;;;;;;;11.20;4.85;;;-0.80;99.90;;;;;;5026065;28;20035;-56
2022/04/18 02:04:06;;;;;;;6.18;3.38;;;-0.80;99.90;;;;;;5029242;28;20044;-54
2022/04/18 02:06:31;;;;;;;6.47;3.25;;;-0.80;99.90;;;;;;5047891;28;20366;-55
2022/04/18 02:08:57;;;;;;;5.15;3.22;;;-0.80;99.90;;;;;;5028086;28;20424;-52
2022/04/18 02:11:22;;;;;;;9.52;4.40;;;-0.70;99.90;;;;;;5047839;28;20056;-53
2022/04/18 02:13:48;;;;;;;4.68;3.22;;;-0.80;99.90;;;;;;5026763;28;20124;-55
2022/04/18 02:16:13;;;;;;;8.18;4.28;;;-0.80;99.90;;;;;;5047684;28;20074;-55
2022/04/18 02:18:39;;;;;;;9.40;5.25;;;-0.90;99.90;;;;;;5029879;28;20053;-56
2022/04/18 02:21:04;;;;;;;7.20;4.30;;;-0.90;99.90;;;;;;5044552;28;20560;-53
2022/04/18 02:23:30;;;;;;;10.15;5.10;;;-0.80;99.90;;;;;;5050797;28;20064;-54
2022/04/18 02:25:55;;;;;;;9.82;4.43;;;-0.80;99.90;;;;;;5030112;28;20731;-52
2022/04/18 02:28:21;;;;;;;8.73;4.18;;;-0.90;99.90;;;;;;5050595;28;20033;-55
2022/04/18 02:30:47;;;;;;;7.38;4.50;;;-0.90;99.90;;;;;;5030028;28;20378;-51
2022/04/18 02:33:12;;;;;;;6.55;3.53;;;-0.90;99.90;;;;;;5050730;28;20055;-56
2022/04/18 02:35:38;;;;;;;11.05;4.65;;;-1.00;99.90;;;;;;5029640;28;20033;-54
2022/04/18 02:38:04;;;;;;;9.55;4.53;;;-1.00;99.90;;;;;;5050754;28;20400;-54
2022/04/18 02:40:29;;;;;;;13.02;5.10;;;-1.00;99.90;;;;;;5029861;28;20291;-53
2022/04/18 02:42:55;;;;;;;5.03;3.67;;;-1.00;99.90;;;;;;5050167;28;20037;-55
2022/04/18 02:45:20;;;;;;;7.65;4.38;;;-1.00;99.90;;;;;;5029889;28;20018;-55
2022/04/18 02:47:47;;;;;;;9.30;4.60;;;-1.10;99.90;;;;;;5050146;28;20028;-53
2022/04/18 02:50:13;;;;;;;7.68;4.05;;;-1.00;99.90;;;;;;5029547;28;20042;-53
2022/04/18 02:52:39;;;;;;;10.88;5.50;;;-1.10;99.90;;;;;;5049837;28;20170;-55
2022/04/18 02:55:05;;;;;;;12.90;5.25;;;-1.10;99.90;;;;;;5040329;28;20053;-56
2022/04/18 02:57:31;;;;;;;8.93;4.90;;;-1.10;99.90;;;;;;5031265;28;20353;-55
2022/04/18 02:59:57;;;;;;;11.82;5.40;;;-1.20;99.90;;;;;;5044292;28;20029;-53
2022/04/18 03:02:22;;;;;;;10.25;4.72;;;-1.10;99.90;;;;;;5031137;28;20501;-57
2022/04/18 03:04:48;;;;;;;10.90;5.78;;;-1.20;99.90;;;;;;5048024;28;20031;-52
2022/04/18 03:07:13;;;;;;;9.63;4.35;;;-1.20;99.90;;;;;;5031184;28;20351;-56
2022/04/18 03:09:39;;;;;;;8.73;5.03;;;-1.20;99.90;;;;;;5047783;28;20032;-59
2022/04/18 03:12:06;;;;;;;8.27;4.15;;;-1.30;99.90;;;;;;5050617;28;20021;-59
2022/04/18 03:14:32;;;;;;;11.80;4.95;;;-1.30;99.90;;;;;;5035581;28;20033;-59
2022/04/18 03:16:58;;;;;;;11.75;5.35;;;-1.30;99.90;;;;;;5050209;28;20025;-59
2022/04/18 03:19:24;;;;;;;8.02;4.50;;;-1.30;99.90;;;;;;5034555;28;20095;-59
2022/04/18 03:21:50;;;;;;;13.02;5.90;;;-1.30;99.90;;;;;;5050411;28;20071;-59
2022/04/18 03:24:15;;;;;;;12.52;6.55;;;-1.30;99.90;;;;;;5032925;28;20142;-60
2022/04/18 03:26:41;;;;;;;11.43;5.78;;;-1.30;99.90;;;;;;5050250;28;20029;-60
2022/04/18 03:29:06;;;;;;;13.40;6.13;;;-1.30;99.90;;;;;;5031719;28;20459;-59
2022/04/18 03:31:32;;;;;;;14.05;6.50;;;-1.40;99.90;;;;;;5049859;28;20018;-59
2022/04/18 03:33:58;;;;;;;12.88;6.50;;;-1.40;99.90;;;;;;5030172;28;20437;-60
2022/04/18 03:41:51;;;;;;;11.68;5.32;;;-1.40;99.90;;;;;;5050068;28;20023;-59
2022/04/18 03:44:18;;;;;;;13.50;6.53;;;-1.40;99.90;;;;;;5032829;28;20041;-59
2022/04/18 03:46:44;;;;;;;9.48;5.32;;;-1.40;99.90;;;;;;5049818;28;20056;-59
2022/04/18 03:49:09;;;;;;;10.98;5.78;;;-1.40;99.90;;;;;;5031692;28;20068;-59
2022/04/18 03:51:35;;;;;;;14.35;7.53;;;-1.40;99.90;;;;;;5049620;28;20417;-59
2022/04/18 03:54:00;;;;;;;11.35;7.03;;;-1.30;99.90;;;;;;5030294;28;20025;-59
2022/04/18 03:56:26;;;;;;;14.25;8.43;;;-1.30;99.90;;;;;;5050050;28;20049;-59
2022/04/18 03:58:51;;;;;;;15.35;9.57;;;-1.20;99.90;;;;;;5029222;28;20377;-60
2022/04/18 04:01:17;;;;;;;13.20;8.23;;;-1.20;99.90;;;;;;5042190;28;20057;-59
2022/04/18 04:03:42;;;;;;;13.63;8.57;;;-1.20;99.90;;;;;;5029951;28;20045;-59
2022/04/18 04:06:08;;;;;;;14.13;7.85;;;-1.20;99.90;;;;;;5047670;28;20024;-59
2022/04/18 04:08:33;;;;;;;14.23;6.60;;;-1.20;99.90;;;;;;5030100;28;20474;-59
2022/04/18 04:10:59;;;;;;;11.02;6.55;;;-1.20;99.90;;;;;;5028338;28;20029;-59
2022/04/18 04:13:25;;;;;;;13.20;6.82;;;-1.10;99.90;;;;;;5048974;28;20032;-59
2022/04/18 04:15:50;;;;;;;15.27;7.43;;;-1.10;99.90;;;;;;5027992;28;20508;-59
2022/04/18 04:18:16;;;;;;;9.18;4.82;;;-1.20;99.90;;;;;;5048296;28;20051;-59
2022/04/18 04:20:41;;;;;;;10.90;5.65;;;-1.10;99.90;;;;;;5027942;28;20503;-59
2022/04/18 04:23:07;;;;;;;14.00;7.63;;;-1.00;99.90;;;;;;5048555;28;20041;-59
2022/04/18 04:25:32;;;;;;;12.82;6.65;;;-1.00;99.90;;;;;;5027960;28;20033;-58
2022/04/18 04:27:58;;;;;;;14.23;7.63;;;-0.90;99.90;;;;;;5048130;28;20039;-58
2022/04/18 04:30:23;;;;;;;14.77;7.65;;;-0.90;99.90;;;;;;5027962;28;20457;-57
2022/04/18 04:32:50;;;;;;;19.38;8.65;;;-0.80;99.90;;;;;;5048163;28;20029;-59
2022/04/18 04:35:17;;;;;;;11.93;6.22;;;-0.70;99.90;;;;;;5027656;28;20084;-58
2022/04/18 04:37:42;;;;;;;16.23;8.02;;;-0.50;99.90;;;;;;5048181;28;20035;-58
2022/04/18 04:40:08;;;;;;;14.98;8.10;;;-0.50;99.90;;;;;;5027772;28;20029;-59
2022/04/18 04:42:34;;;;;;;14.40;7.47;;;-0.50;99.90;;;;;;5048131;28;20045;-59
2022/04/18 04:45:00;;;;;;;12.63;6.50;;;-0.30;99.90;;;;;;5037587;28;20029;-58
2022/04/18 04:47:25;;;;;;;13.18;7.10;;;0.20;99.90;;;;;;5029393;28;20033;-60
2022/04/18 04:49:51;;;;;;;16.38;7.80;;;0.70;99.90;;;;;;5046034;28;20079;-59
2022/04/18 04:52:16;;;;;;;12.55;6.78;;;2.70;99.90;;;;;;5029243;28;20040;-59
2022/04/18 04:54:42;;;;;;;11.18;6.47;;;4.70;99.90;;;;;;5045940;28;20017;-60
2022/04/18 04:57:07;;;;;;;10.82;6.72;;;6.30;99.90;;;;;;5029308;28;20094;-60
2022/04/18 04:59:33;;;;;;;13.60;6.60;;;7.60;96.80;;;;;;5042147;28;20040;-59
2022/04/18 05:01:58;;;;;;;7.85;5.93;;;8.30;84.50;;;;;;5048343;28;20116;-60
2022/04/18 05:04:27;;;;;;;11.10;6.15;;;7.90;80.40;;;;;;5032537;28;20067;-60
2022/04/18 05:06:52;;;;;;;11.02;6.55;;;8.00;74.30;;;;;;5048584;28;20017;-60
2022/04/18 05:09:18;;;;;;;10.18;6.03;;;8.80;70.50;;;;;;5031572;28;20416;-60
2022/04/18 05:11:44;;;;;;;11.75;6.40;;;9.90;64.50;;;;;;5048641;28;20029;-60
2022/04/18 05:14:10;;;;;;;10.05;6.18;;;11.00;52.70;;;;;;5030417;28;20388;-60
2022/04/18 05:16:35;;;;;;;8.85;5.80;;;12.20;48.80;;;;;;5048365;28;20021;-60
2022/04/18 05:19:01;;;;;;;8.05;5.78;;;13.10;42.80;;;;;;5029165;28;20040;-61
2022/04/18 05:21:26;;;;;;;7.97;5.22;;;14.10;40.90;;;;;;5048446;28;20155;-60
2022/04/18 05:23:52;;;;;;;8.68;5.93;;;14.90;31.10;;;;;;5027678;28;20405;-60
2022/04/18 05:26:17;;;;;;;8.90;6.07;;;15.90;31.30;;;;;;5048138;28;20091;-60
2022/04/18 05:28:43;;;;;;;9.52;6.03;;;16.90;29.70;;;;;;5028737;28;20044;-60
2022/04/18 05:31:08;;;;;;;9.85;6.38;;;17.50;25.70;;;;;;5046075;28;20067;-60
2022/04/18 05:33:34;;;;;;;8.68;5.65;;;17.30;25.80;;;;;;5028703;28;20036;-60
2022/04/18 05:35:59;;;;;;;10.35;6.97;;;18.00;25.70;;;;;;5027292;28;20022;-61
2022/04/18 05:38:25;;;;;;;10.63;6.88;;;19.00;24.10;;;;;;5047693;28;20500;-60
2022/04/18 05:40:50;;;;;;;10.90;6.57;;;19.70;22.40;;;;;;5026910;28;20037;-61
2022/04/18 05:43:17;;;;;;;11.20;7.75;;;20.10;21.50;;;;;;5047320;28;20033;-60
2022/04/18 05:45:43;;;;;;;11.05;7.20;;;20.80;21.60;;;;;;5026854;28;20026;-60
2022/04/18 05:48:09;;;;;;;8.38;6.65;;;21.70;19.80;;;;;;5047439;28;20033;-61
2022/04/18 05:50:34;;;;;;;10.32;6.50;;;22.30;18.00;;;;;;5026741;28;20227;-60
2022/04/18 05:53:00;;;;;;;8.23;6.22;;;23.00;16.80;;;;;;5048036;28;20032;-60
2022/04/18 05:55:26;;;;;;;8.60;6.50;;;23.30;15.60;;;;;;5031028;28;20052;-58
2022/04/18 05:57:52;;;;;;;7.80;6.32;;;23.80;14.30;;;;;;5051203;28;20045;-58
2022/04/18 06:00:19;;;;;;;9.25;7.03;;;24.00;14.40;;;;;;5032210;28;20088;-58
2022/04/18 06:02:44;;;;;;;10.57;7.55;;;24.00;13.40;;;;;;5032079;28;20052;-58
2022/04/18 06:05:10;;;;;;;8.40;6.22;;;24.70;13.50;;;;;;5037882;28;20025;-60
2022/04/18 06:07:35;;;;;;;10.02;7.32;;;24.20;6.30;;;;;;5050828;28;20029;-59
2022/04/18 06:10:02;;;;;;;8.27;6.68;;;24.50;9.40;;;;;;5040765;28;20074;-60
2022/04/18 06:12:28;;;;;;;9.27;6.00;;;24.50;9.60;;;;;;5032226;28;20116;-60
2022/04/18 06:14:53;;;;;;;9.27;7.15;;;25.10;7.20;;;;;;5048989;28;20190;-60
2022/04/18 06:17:19;;;;;;;8.38;6.15;;;25.70;8.60;;;;;;5031992;28;20044;-60
2022/04/18 06:19:45;;;;;;;8.48;6.25;;;25.50;6.70;;;;;;5048947;28;20072;-60
2022/04/18 06:22:10;;;;;;;6.45;5.40;;;24.80;3.20;;;;;;5032288;28;20136;-60
2022/04/18 06:24:36;;;;;;;8.27;5.85;;;24.80;6.50;;;;;;5048686;28;20514;-60
2022/04/18 06:27:02;;;;;;;8.93;6.10;;;25.40;7.30;;;;;;5051456;28;20152;-60
2022/04/18 06:29:27;;;;;;;7.65;5.97;;;24.20;2.60;;;;;;5035744;28;20028;-59
2022/04/18 06:31:55;;;;;;;7.30;5.63;;;23.50;3.40;;;;;;5051306;28;20370;-59
2022/04/18 06:34:21;;;;;;;6.90;5.10;;;23.80;5.10;;;;;;5034343;28;20024;-60
2022/04/18 06:36:46;;;;;;;9.38;5.75;;;24.40;6.80;;;;;;5051213;28;20108;-59
2022/04/18 06:39:12;;;;;;;6.07;5.10;;;25.20;5.40;;;;;;5033623;28;20017;-60
2022/04/18 06:41:37;;;;;;;9.05;6.15;;;25.10;2.80;;;;;;5050882;28;20400;-60
2022/04/18 06:44:03;;;;;;;6.20;5.07;;;24.80;5.20;;;;;;5032186;28;20034;-60
2022/04/18 06:46:29;;;;;;;7.78;5.80;;;24.40;3.90;;;;;;5051167;28;20056;-60
2022/04/18 06:48:54;;;;;;;8.00;5.25;;;25.00;4.70;;;;;;5031262;28;20146;-59
2022/04/18 06:51:20;;;;;;;6.45;5.07;;;25.60;4.60;;;;;;5050725;28;20404;-60
2022/04/18 06:53:45;;;;;;;8.38;5.38;;;25.70;3.70;;;;;;5031398;28;20034;-60
2022/04/18 06:58:55;;;;;;;4.97;3.78;;;27.30;3.90;;;;;;5030442;28;20040;-59
2022/04/18 07:01:21;;;;;;;6.03;4.40;;;28.20;3.20;;;;;;5046957;28;20024;-60
2022/04/18 07:03:46;;;;;;;7.53;5.32;;;28.00;3.00;;;;;;5029198;28;20500;-59
2022/04/18 07:06:12;;;;;;;7.18;4.38;;;28.20;2.30;;;;;;5049662;28;20064;-60
2022/04/18 07:08:38;;;;;;;5.00;3.65;;;28.00;2.10;;;;;;5031195;28;20037;-59
2022/04/18 07:11:04;;;;;;;6.40;4.05;;;28.70;2.20;;;;;;5029501;28;20149;-60
2022/04/18 07:13:29;;;;;;;6.53;4.93;;;29.20;1.70;;;;;;5049887;28;20172;-59
2022/04/18 07:15:55;;;;;;;5.65;4.40;;;28.90;1.00;;;;;;5029123;28;20035;-60
2022/04/18 07:18:20;;;;;;;4.75;3.72;;;28.70;1.00;;;;;;5049605;28;20029;-59
2022/04/18 07:20:46;;;;;;;3.67;3.38;;;29.60;1.00;;;;;;5029221;28;20022;-59
2022/04/18 07:23:12;;;;;;;5.60;4.07;;;29.90;1.00;;;;;;5049650;28;20072;-59
2022/04/18 07:25:37;;;;;;;4.88;3.47;;;30.30;1.00;;;;;;5028813;28;20513;-60
2022/04/18 07:28:03;;;;;;;4.47;3.70;;;30.70;1.00;;;;;;5049627;28;20039;-60
2022/04/18 07:30:30;;;;;;;5.05;3.25;;;30.50;1.00;;;;;;5029049;28;20033;-60
2022/04/18 07:32:56;;;;;;;4.68;3.70;;;30.50;1.00;;;;;;5049406;28;20037;-60
2022/04/18 07:35:21;;;;;;;5.00;3.80;;;29.90;1.00;;;;;;5028949;28;20028;-60
2022/04/18 07:40:31;;;;;;;4.40;3.80;;;29.60;1.00;;;;;;5028933;28;20060;-60
2022/04/18 07:42:56;;;;;;;5.22;3.50;;;28.90;1.00;;;;;;5048906;28;20037;-60
2022/04/18 07:45:22;;;;;;;4.88;3.33;;;29.70;1.00;;;;;;5028625;28;20025;-60
2022/04/18 07:47:50;;;;;;;5.03;3.90;;;28.80;1.00;;;;;;5049137;28;20036;-60
2022/04/18 07:50:15;;;;;;;4.35;3.22;;;28.30;1.00;;;;;;5028329;28;20045;-60
2022/04/18 07:52:41;;;;;;;5.35;4.43;;;28.60;1.00;;;;;;5048965;28;20124;-59
2022/04/18 07:55:06;;;;;;;5.82;3.90;;;29.30;1.00;;;;;;5028725;28;20056;-60
2022/04/18 07:57:32;;;;;;;4.38;3.80;;;29.60;1.00;;;;;;5049086;28;20538;-60
2022/04/18 07:59:57;;;;;;;4.75;3.72;;;29.90;1.00;;;;;;5030664;28;20029;-59
2022/04/18 08:02:24;;;;;;;5.60;3.70;;;29.20;1.00;;;;;;5030409;28;20079;-60
2022/04/18 08:04:49;;;;;;;4.82;3.63;;;28.70;1.00;;;;;;5047254;28;20062;-60
2022/04/18 08:07:14;;;;;;;3.75;2.80;;;29.00;1.00;;;;;;5030094;28;20037;-59
2022/04/18 08:09:40;;;;;;;5.53;3.95;;;29.10;1.00;;;;;;5046657;28;20112;-60
2022/04/18 08:12:07;;;;;;;5.28;4.07;;;28.60;1.00;;;;;;5049564;28;20468;-60
2022/04/18 08:14:32;;;;;;;5.60;3.88;;;28.80;1.00;;;;;;5034397;28;20480;-59
2022/04/18 08:16:58;;;;;;;5.07;3.40;;;29.10;1.00;;;;;;5048665;28;20297;-59
2022/04/18 08:19:23;;;;;;;4.68;3.50;;;29.00;1.00;;;;;;5033321;28;20100;-60
2022/04/18 08:21:49;;;;;;;4.32;3.15;;;29.60;1.00;;;;;;5049278;28;20029;-60
2022/04/18 08:24:14;;;;;;;5.63;3.58;;;29.60;1.00;;;;;;5031853;28;20408;-60
2022/04/18 08:26:40;;;;;;;5.88;3.53;;;30.10;1.00;;;;;;5048972;28;20024;-60
2022/04/18 08:29:06;;;;;;;5.93;3.42;;;28.80;1.00;;;;;;5030699;28;20032;-60
2022/04/18 08:31:32;;;;;;;3.78;2.95;;;27.80;1.00;;;;;;5049098;28;20046;-60
2022/04/18 08:33:57;;;;;;;3.92;3.35;;;28.40;1.00;;;;;;5029129;28;20425;-60
2022/04/18 08:36:23;;;;;;;5.28;3.38;;;28.70;1.00;;;;;;5049154;28;20404;-60
2022/04/18 08:38:48;;;;;;;3.97;3.10;;;28.90;1.00;;;;;;5028281;28;20492;-60
2022/04/18 08:41:20;;;;;;;4.85;2.55;;;29.70;1.00;;;;;;5049006;28;20033;-60
2022/04/18 08:43:46;;;;;;;3.85;3.10;;;29.70;1.00;;;;;;5027207;28;20520;-58
2022/04/18 08:46:12;;;;;;;4.20;2.90;;;29.80;1.00;;;;;;5048975;28;20025;-60
2022/04/18 08:54:08;;;;;;;3.15;2.85;;;28.70;1.00;;;;;;5012462;28;20053;-59
2022/04/18 08:56:34;;;;;;;4.38;2.45;;;29.10;1.00;;;;;;5048714;28;20017;-59
2022/04/18 08:58:59;;;;;;;3.97;2.30;;;29.40;1.00;;;;;;5029235;28;20029;-59
2022/04/18 09:01:25;;;;;;;1.90;1.80;;;29.50;1.00;;;;;;5041719;28;20055;-60
2022/04/18 09:03:50;;;;;;;2.60;1.90;;;29.70;1.00;;;;;;5027882;28;20516;-59
2022/04/18 09:06:16;;;;;;;2.65;1.83;;;28.70;1.00;;;;;;5048475;28;20053;-60
2022/04/18 09:08:52;;;;;;;2.15;1.70;;;28.90;1.00;;;;;;5029095;28;20037;-60
2022/04/18 09:11:30;;;;;;;1.70;1.60;;;28.00;1.00;;;;;;5028327;28;20539;-60
2022/04/18 09:14:12;;;;;;;4.28;1.80;;;27.90;1.00;;;;;;5046402;28;20037;-60
2022/04/18 09:16:39;;;;;;;3.42;1.63;;;26.90;1.00;;;;;;5048118;28;20025;-60
2022/04/18 09:19:10;;;;;;;1.73;1.33;;;26.80;1.00;;;;;;5029643;28;20033;-60
2022/04/18 09:21:59;;;;;;;2.88;1.77;;;27.20;1.00;;;;;;5048504;28;20244;-60
2022/04/18 09:24:34;;;;;;;2.42;1.95;;;27.50;1.00;;;;;;5032065;28;20123;-59
2022/04/18 09:27:13;;;;;;;4.97;1.97;;;28.30;1.00;;;;;;5048461;28;20032;-60
2022/04/18 09:29:40;;;;;;;1.63;1.52;;;29.00;1.00;;;;;;5021035;28;20082;-60
2022/04/18 09:32:10;;;;;;;3.83;1.70;;;28.70;1.00;;;;;;5048369;28;20032;-60
2022/04/18 09:34:36;;;;;;;3.15;2.15;;;28.60;1.00;;;;;;5033236;28;20413;-60
2022/04/18 09:37:15;;;;;;;4.68;1.83;;;28.30;1.00;;;;;;5048283;28;20029;-60
2022/04/18 09:39:50;;;;;;;2.28;1.70;;;27.80;1.00;;;;;;5034356;28;20024;-60
2022/04/18 09:42:15;;;;;;;2.72;2.03;;;28.00;1.00;;;;;;5028238;28;20120;-60
2022/04/18 09:44:41;;;;;;;4.10;2.30;;;28.00;1.00;;;;;;5045377;28;20164;-59
2022/04/18 09:47:13;;;;;;;2.70;1.80;;;28.40;1.00;;;;;;5028727;28;20068;-60
2022/04/18 09:49:39;;;;;;;2.17;1.80;;;29.10;1.00;;;;;;5033467;28;20136;-60
2022/04/18 09:52:08;;;;;;;1.55;1.40;;;28.50;1.00;;;;;;5048283;28;20571;-60
2022/04/18 09:54:33;;;;;;;2.08;1.48;;;27.80;1.00;;;;;;5033124;28;20035;-60
2022/04/18 09:57:06;;;;;;;1.63;1.40;;;27.90;1.00;;;;;;5047822;28;20297;-60
2022/04/18 09:59:31;;;;;;;1.98;1.40;;;27.80;1.00;;;;;;5031348;28;20110;-57
2022/04/18 10:01:59;;;;;;;3.28;1.63;;;28.30;1.00;;;;;;5047525;28;20067;-60
2022/04/18 10:04:24;;;;;;;1.83;1.55;;;27.90;1.00;;;;;;5031905;28;20037;-59
2022/04/18 10:06:52;;;;;;;2.47;1.73;;;27.60;1.00;;;;;;5047840;28;20025;-60
2022/04/18 10:09:19;;;;;;;2.17;1.60;;;26.30;1.00;;;;;;5031015;28;20021;-60
2022/04/18 10:11:44;;;;;;;2.45;1.63;;;23.80;1.00;;;;;;5047972;28;20029;-59
2022/04/18 10:14:11;;;;;;;2.25;1.65;;;21.80;1.00;;;;;;5030140;28;20511;-61
2022/04/18 10:16:38;;;;;;;3.58;1.80;;;20.10;1.00;;;;;;5047501;28;20080;-59
2022/04/18 10:19:28;;;;;;;2.03;1.50;;;19.00;1.00;;;;;;5028854;28;20029;-60
2022/04/18 10:22:14;;;;;;;2.63;1.75;;;18.20;2.40;;;;;;5047684;28;20268;-60
2022/04/18 10:24:56;;;;;;;2.67;2.03;;;17.50;2.90;;;;;;5033241;28;20035;-60
2022/04/18 10:27:53;;;;;;;1.75;1.33;;;16.90;3.60;;;;;;5008259;28;20119;-60
2022/04/18 10:30:19;;;;;;;1.52;1.25;;;16.40;4.00;;;;;;5027602;28;20069;-61
2022/04/18 10:32:47;;;;;;;1.80;1.23;;;16.20;4.50;;;;;;5028166;28;20527;-60
2022/04/18 10:35:14;;;;;;;2.50;1.85;;;16.10;4.20;;;;;;5033690;28;20058;-60
2022/04/18 10:37:43;;;;;;;4.10;2.42;;;15.80;6.70;;;;;;5046763;28;20116;-60
2022/04/18 10:40:09;;;;;;;2.72;2.10;;;15.50;6.80;;;;;;5028612;28;20493;-60
2022/04/18 10:42:42;;;;;;;1.90;1.50;;;15.20;8.10;;;;;;5050274;28;20039;-60
2022/04/18 10:45:17;;;;;;;3.17;1.52;;;15.00;10.10;;;;;;5040593;28;20488;-60
2022/04/18 10:48:05;;;;;;;2.28;1.58;;;14.80;10.20;;;;;;5011462;28;20018;-60
2022/04/18 10:50:45;;;;;;;2.78;1.63;;;14.70;10.00;;;;;;5033361;28;20041;-60
2022/04/18 10:53:17;;;;;;;2.92;1.60;;;14.50;11.50;;;;;;5050629;28;20385;-60
2022/04/18 10:55:51;;;;;;;4.50;1.58;;;14.40;10.00;;;;;;5029485;28;20159;-60
2022/04/18 10:58:20;;;;;;;3.03;1.67;;;14.50;12.00;;;;;;5049958;28;20095;-60
2022/04/18 11:00:54;;;;;;;3.40;2.10;;;14.50;11.10;;;;;;5022050;28;20033;-60
2022/04/18 11:03:35;;;;;;;3.65;2.20;;;14.40;11.00;;;;;;5050211;28;20083;-59
2022/04/18 11:06:06;;;;;;;5.32;1.77;;;14.40;10.70;;;;;;5029600;28;20037;-60
2022/04/18 11:08:38;;;;;;;2.55;1.80;;;14.50;10.30;;;;;;5011489;28;20034;-60
2022/04/18 11:11:07;;;;;;;3.25;2.03;;;14.40;12.20;;;;;;5029281;28;20037;-63
2022/04/18 11:13:33;;;;;;;2.45;2.00;;;14.40;11.20;;;;;;5050445;28;20496;-62
2022/04/18 11:16:28;;;;;;;3.50;2.17;;;14.40;11.30;;;;;;5028904;28;20043;-63
2022/04/18 11:19:09;;;;;;;2.67;1.52;;;14.40;11.30;;;;;;5029823;28;20021;-63
2022/04/18 11:22:00;;;;;;;2.33;1.70;;;14.60;12.40;;;;;;5050281;28;20040;-62
2022/04/18 11:25:09;;;;;;;3.60;2.13;;;14.60;12.30;;;;;;5020265;28;20039;-63
2022/04/18 11:27:36;;;;;;;3.30;1.95;;;14.50;12.50;;;;;;4988210;28;20077;-62
2022/04/18 11:30:13;;;;;;;3.78;1.90;;;14.50;11.60;;;;;;4967406;28;20513;-63
2022/04/18 11:32:41;;;;;;;3.60;1.90;;;14.50;11.60;;;;;;5015553;28;20048;-63
2022/04/18 11:35:09;;;;;;;2.13;1.45;;;14.70;11.80;;;;;;5028733;28;20030;-63
2022/04/18 11:37:36;;;;;;;2.55;1.65;;;14.70;12.00;;;;;;5049625;28;20039;-63
2022/04/18 11:40:06;;;;;;;2.00;1.50;;;14.70;11.60;;;;;;5039213;28;20082;-63
2022/04/18 11:42:32;;;;;;;2.78;1.70;;;14.90;11.20;;;;;;5030425;28;20040;-62
2022/04/18 11:45:00;;;;;;;2.40;1.60;;;14.90;11.50;;;;;;5047348;28;20025;-63
2022/04/18 11:47:28;;;;;;;2.22;1.40;;;14.80;11.40;;;;;;5030206;28;20071;-63
2022/04/18 11:49:55;;;;;;;3.15;1.80;;;14.70;10.40;;;;;;5047437;28;20037;-63
2022/04/18 11:52:24;;;;;;;2.58;1.60;;;14.70;11.60;;;;;;5029449;28;20509;-62
2022/04/18 11:55:01;;;;;;;2.70;1.60;;;14.70;11.10;;;;;;5047651;28;20132;-63
2022/04/18 11:57:29;;;;;;;2.30;1.52;;;14.70;10.60;;;;;;5010263;28;20034;-63
2022/04/18 11:59:55;;;;;;;2.92;1.40;;;14.70;10.40;;;;;;5043257;28;20223;-63
2022/04/18 12:08:04;;;;;;;3.83;1.67;;;14.60;9.30;;;;;;5029992;28;20427;-63
2022/04/18 12:10:31;;;;;;;2.63;1.20;;;14.50;9.50;;;;;;5032866;28;20374;-62
2022/04/18 12:12:59;;;;;;;1.48;1.05;;;14.30;9.50;;;;;;5048666;28;20317;-63
2022/04/18 12:15:26;;;;;;;2.35;1.52;;;14.40;9.60;;;;;;5027987;28;20052;-64
2022/04/18 12:17:53;;;;;;;1.35;1.05;;;14.40;9.30;;;;;;5048811;28;20029;-63
2022/04/18 12:20:29;;;;;;;2.55;1.50;;;14.40;9.20;;;;;;5027718;28;20119;-63
2022/04/18 12:23:01;;;;;;;1.85;1.20;;;14.50;8.00;;;;;;5029166;28;20032;-63
2022/04/18 12:25:32;;;;;;;2.92;1.25;;;14.40;7.50;;;;;;5021845;28;20112;-63
2022/04/18 12:28:00;;;;;;;4.80;1.17;;;14.20;7.30;;;;;;5029056;28;20033;-63
2022/04/18 12:30:27;;;;;;;2.13;1.50;;;14.20;6.90;;;;;;5033099;28;20096;-63
2022/04/18 12:32:54;;;;;;;2.10;1.40;;;14.20;7.60;;;;;;5048561;28;20062;-64
2022/04/18 12:35:40;;;;;;;2.90;1.65;;;14.30;8.30;;;;;;5027738;28;20374;-64
2022/04/18 12:38:11;;;;;;;1.40;0.95;;;14.40;8.20;;;;;;5029163;28;20037;-63
2022/04/18 12:40:41;;;;;;;2.22;1.52;;;14.50;9.00;;;;;;5022533;28;20051;-63
2022/04/18 12:43:15;;;;;;;1.77;1.10;;;14.50;8.30;;;;;;5048383;28;20029;-64
2022/04/18 12:45:43;;;;;;;3.08;1.60;;;14.50;8.70;;;;;;5026995;28;20068;-64
2022/04/18 12:48:08;;;;;;;1.38;1.13;;;14.40;8.50;;;;;;5048277;28;20131;-63
2022/04/18 12:50:35;;;;;;;6.00;1.50;;;14.50;8.70;;;;;;5027388;28;20476;-64
2022/04/18 12:53:00;;;;;;;1.73;1.25;;;14.50;8.70;;;;;;5048095;28;20029;-60
2022/04/18 12:55:30;;;;;;;2.88;1.25;;;14.50;9.20;;;;;;5027440;28;20117;-60
2022/04/18 12:57:56;;;;;;;2.22;1.20;;;14.50;9.00;;;;;;5048476;28;20124;-61
2022/04/18 13:00:23;;;;;;;1.65;1.20;;;14.60;9.30;;;;;;5029166;28;20060;-61
2022/04/18 13:03:03;;;;;;;2.10;1.60;;;14.70;9.60;;;;;;5028928;28;20045;-60
2022/04/18 13:05:33;;;;;;;2.65;1.80;;;14.70;10.40;;;;;;5021601;28;20087;-61
2022/04/18 13:08:04;;;;;;;2.30;1.65;;;14.70;9.80;;;;;;5048068;28;20052;-60
2022/04/18 13:10:32;;;;;;;2.00;1.17;;;14.70;10.10;;;;;;5026802;28;20033;-61
2022/04/18 13:13:19;;;;;;;1.65;1.38;;;14.60;9.80;;;;;;5047863;28;20206;-60
2022/04/18 13:15:46;;;;;;;2.05;1.48;;;14.60;11.40;;;;;;5026652;28;20026;-61
2022/04/18 13:18:19;;;;;;;2.30;1.75;;;14.80;10.00;;;;;;5047914;28;20060;-60
2022/04/18 13:20:45;;;;;;;3.20;1.60;;;14.80;9.90;;;;;;5026939;28;20028;-60